Station WCXA2 - Ward Cove, AK Image indicating link to RSS feed of recent meteorological observations for station WCXA2


Conditions at WCXA2 as of
(1:03 am AKDT)
0903 GMT on 05/26/2024:
     

Click on the graph icon in the table below to see a time series plot of the last five days of that observation.

5-day plot - Wind Direction Wind Direction (WDIR):ESE ( 110 deg true )
5-day plot - Wind Speed Wind Speed (WSPD): 6 kts
5-day plot - Wind Gust Wind Gust (GST): 14 kts
5-day plot - Air Temperature Air Temperature (ATMP): 47.1 °F
5-day plot - Wind Chill Wind Chill (CHILL): 43.7 °F
5-day plot - Wind Speed at 10 Meters Wind Speed at 10 meters (WSPD10M): 8 kts
5-day plot - Wind Speed at 20 Meters Wind Speed at 20 meters (WSPD20M): 8 kts
5-day plot -  Wind Speed, Wind Gust and Atmospheric Pressure Combined plot of Wind Speed, Gust, and Air Pressure
Previous observations
TIME
(AKDT)
5-day plot - Wind Direction
WDIR
 
5-day plot - Wind Speed
WSPD
kts
5-day plot - Wind Gust
GST
kts
5-day plot - Wave Height
WVHT
ft
5-day plot - Dominant Wave Period
DPD
sec
5-day plot - Average Wave Period
APD
sec
5-day plot - Mean Wave Direction
MWD
 
5-day plot - Atmospheric Pressure
PRES
in
5-day plot - Pressure Tendency
PTDY
in
5-day plot - Air Temperature
ATMP
°F
5-day plot - Water Temperature
WTMP
°F
5-day plot - Dew Point
DEWP
°F
5-day plot - Salinity
SAL
psu
5-day plot - Visibility
VIS
nmi
5-day plot - Tide (above MLLW)
TIDE
ft
2024-05-26 12:53 am E 4 12------ 46.4-----
2024-05-26 12:43 amESE 7 15------ 47.3-----
2024-05-26 12:33 am E 5 11------ 46.4-----
2024-05-26 12:23 amENE 5 9------ 46.0-----
2024-05-26 12:14 amENE 7 9------ 45.7-----
2024-05-26 12:03 amENE 6 9------ 46.2-----
2024-05-25 11:53 pm E 5 14------ 46.4-----
2024-05-25 11:43 pm E 5 10------ 46.6-----
2024-05-25 11:33 pm E 5 13------ 46.6-----
2024-05-25 11:23 pm E 6 9------ 46.4-----
2024-05-25 11:13 pm E 5 13------ 47.1-----
2024-05-25 11:03 pmENE 7 14------ 46.9-----
2024-05-25 10:53 pm E 6 13------ 46.6-----
2024-05-25 10:43 pmENE 7 9------ 46.0-----
2024-05-25 10:33 pm NE 6 11------ 46.2-----
2024-05-25 10:23 pmENE 6 10------ 46.2-----
2024-05-25 10:13 pm NE 6 9------ 46.4-----
2024-05-25 10:03 pm E 4 10------ 46.8-----
2024-05-25 09:53 pmENE 7 10------ 46.0-----
2024-05-25 09:43 pmENE 5 8------ 45.9-----
2024-05-25 09:33 pmENE 6 10------ 46.2-----
2024-05-25 09:23 pmENE 7 10------ 46.0-----
2024-05-25 09:13 pmENE 5 8------ 45.9-----
2024-05-25 09:03 pm E 6 9------ 46.0-----
2024-05-25 08:53 pmENE 6 9------ 46.2-----
2024-05-25 08:43 pm E 4 6------ 46.0-----
2024-05-25 08:34 pm E 4 7------ 46.2-----
2024-05-25 08:24 pm E 4 7------ 46.8-----
2024-05-25 08:13 pm E 4 9------ 46.8-----
2024-05-25 08:03 pmENE 4 7------ 46.6-----
2024-05-25 07:53 pmENE 4 6------ 46.6-----
2024-05-25 07:43 pm E 3 6------ 46.8-----
2024-05-25 07:33 pmENE 4 8------ 47.3-----
2024-05-25 07:23 pm NE 6 11------ 46.8-----
2024-05-25 07:13 pmENE 3 5------ 46.6-----
2024-05-25 07:03 pm E 4 6------ 46.8-----
2024-05-25 06:53 pmSSW 4 8------ 46.9-----
2024-05-25 06:43 pmSSW 6 12------ 46.8-----
2024-05-25 06:33 pm SE 4 10------ 46.8-----
2024-05-25 06:23 pm S 3 10------ 46.8-----
2024-05-25 06:13 pm S 6 12------ 46.6-----
2024-05-25 06:03 pm S 7 12------ 46.6-----
2024-05-25 05:53 pm S 8 14------ 46.6-----
2024-05-25 05:43 pmSSW 8 14------ 46.6-----
2024-05-25 05:33 pmSSW 8 13------ 46.8-----
2024-05-25 05:23 pmSSW 7 15------ 46.9-----
2024-05-25 05:13 pm S 5 12------ 46.9-----
2024-05-25 05:03 pm S 4 9------ 46.9-----
2024-05-25 04:53 pmSSW 4 8------ 47.1-----
2024-05-25 04:43 pmSSE 3 7------ 46.9-----
2024-05-25 04:33 pmSSW 5 13------ 46.9-----
2024-05-25 04:23 pmESE 4 10------ 46.9-----
2024-05-25 04:13 pm E 3 7------ 46.8-----
2024-05-25 03:53 pmSSE 6 14------ 46.6-----
2024-05-25 03:43 pm S 5 12------ 46.6-----
2024-05-25 03:33 pmSSE 7 16------ 46.6-----
2024-05-25 03:23 pm S 7 12------ 46.6-----
2024-05-25 03:13 pmSSE 6 12------ 46.4-----
2024-05-25 03:03 pmSSE 8 17------ 46.4-----
2024-05-25 02:53 pmSSE 8 15------ 46.6-----
2024-05-25 02:43 pmSSE 7 13------ 46.8-----
2024-05-25 02:33 pm S 5 12------ 46.9-----
2024-05-25 02:23 pm S 5 13------ 46.9-----
2024-05-25 02:13 pmESE 5 18------ 46.9-----
2024-05-25 02:03 pm S 9 17------ 46.9-----
2024-05-25 01:53 pm S 9 19------ 46.9-----
2024-05-25 01:43 pm S 6 13------ 46.9-----
2024-05-25 01:33 pm S 9 17------ 46.8-----
2024-05-25 01:23 pm S 8 16------ 46.6-----
2024-05-25 01:13 pm S 8 16------ 46.4-----
2024-05-25 01:03 pm S 9 17------ 46.2-----
2024-05-25 12:53 pm S 9 16------ 46.4-----
2024-05-25 12:43 pm S 8 18------ 46.4-----
2024-05-25 12:33 pm S 8 17------ 46.4-----
2024-05-25 12:13 pmSSE 9 15------ 46.6-----
2024-05-25 12:03 pm S 8 15------ 46.6-----
2024-05-25 11:53 am S 10 19------ 46.6-----
2024-05-25 11:43 am S 10 17------ 46.6-----
2024-05-25 11:33 am S 10 16------ 46.8-----
2024-05-25 11:23 am S 7 14------ 46.8-----
2024-05-25 11:13 amSSE 8 14------ 46.9-----
2024-05-25 11:03 amSSE 7 14------ 46.9-----
2024-05-25 10:53 am S 6 12------ 47.1-----
2024-05-25 10:43 am S 6 12------ 47.3-----
2024-05-25 10:33 am S 6 13------ 47.5-----
2024-05-25 10:23 amSSE 5 11------ 47.8-----
2024-05-25 10:13 amSSE 6 13------ 47.8-----
2024-05-25 10:03 amSSE 7 12------ 47.8-----
2024-05-25 09:53 amSSE 8 13------ 47.8-----
2024-05-25 09:43 amSSE 9 15------ 48.0-----
2024-05-25 09:33 am S 8 14------ 48.0-----
2024-05-25 09:23 amSSE 8 13------ 48.0-----
2024-05-25 09:13 am S 7 12------ 48.0-----
2024-05-25 09:03 amSSW 8 16------ 47.8-----
2024-05-25 08:53 am S 7 12------ 48.2-----
2024-05-25 08:43 amSSE 4 9------ 48.4-----
2024-05-25 08:33 am S 6 11------ 48.2-----
2024-05-25 08:23 am S 5 10------ 48.4-----
2024-05-25 08:13 amSSE 4 8------ 48.2-----
2024-05-25 08:03 am S 4 10------ 47.8-----
2024-05-25 07:53 amSSW 5 8------ 47.8-----
2024-05-25 07:43 amSSW 4 7------ 47.8-----
2024-05-25 07:33 am SW 4 7------ 47.5-----
2024-05-25 07:23 am SW 2 4------ 47.1-----
2024-05-25 07:13 am- 0 1------ 46.8-----
2024-05-25 07:03 am NE 1 2------ 46.4-----
2024-05-25 06:53 am NE 2 2------ 46.2-----
2024-05-25 06:43 am NE 1 2------ 46.0-----
2024-05-25 06:33 am NE 1 2------ 45.7-----
2024-05-25 06:23 am E 2 2------ 45.3-----
2024-05-25 06:13 am NE 2 3------ 45.3-----
2024-05-25 06:03 am NE 2 3------ 45.0-----
2024-05-25 05:53 amENE 2 2------ 45.0-----
2024-05-25 05:43 amENE 2 3------ 44.6-----
2024-05-25 05:33 am NE 3 3------ 44.6-----
2024-05-25 05:23 amENE 3 3------ 44.6-----
2024-05-25 05:13 amENE 3 4------ 44.6-----
2024-05-25 05:03 am NE 3 4------ 44.6-----
2024-05-25 04:53 amENE 2 3------ 44.6-----
2024-05-25 04:43 amENE 2 3------ 44.4-----
2024-05-25 04:33 amENE 3 4------ 44.4-----
2024-05-25 04:23 am NE 3 4------ 44.4-----
2024-05-25 04:13 am NE 3 4------ 44.4-----
2024-05-25 04:03 amENE 3 4------ 44.2-----
2024-05-25 03:53 amENE 3 4------ 44.4-----
2024-05-25 03:43 am NE 3 3------ 44.2-----
2024-05-25 03:33 amENE 3 4------ 44.1-----
2024-05-25 03:23 am NE 3 4------ 43.9-----
2024-05-25 03:13 amENE 3 4------ 43.7-----
2024-05-25 03:03 amENE 3 4------ 43.9-----
2024-05-25 02:53 am NE 3 4------ 43.9-----
2024-05-25 02:43 am NE 3 4------ 43.5-----
2024-05-25 02:33 amENE 3 3------ 43.3-----
2024-05-25 02:23 am NE 3 4------ 43.2-----
2024-05-25 02:13 am NE 4 4------ 43.0-----
2024-05-25 02:03 am NE 3 4------ 42.8-----
2024-05-25 01:53 amENE 2 3------ 42.6-----
2024-05-25 01:43 am NE 3 4------ 42.6-----
2024-05-25 01:23 am NE 4 5------ 42.4-----
2024-05-25 01:13 am NE 4 5------ 42.4-----